Time;durP1;ratioP1;P1;durP2;ratioP2;P2;SDS_P1;SDS_P2;PMS_P1;PMS_P2;Temp;Humidity;BMP_temperature;BMP_pressure;BME280_temperature;BME280_humidity;BME280_pressure;Samples;Min_cycle;Max_cycle;Signal;HPM_P1;HPM_P2
2022/12/26 00:01:50;;;;;;;7.77;6.00;;;11.70;1.00;;;;;;4985284;28;20476;-54
2022/12/26 00:04:16;;;;;;;8.83;6.07;;;11.70;1.00;;;;;;4984680;28;20192;-55
2022/12/26 00:06:41;;;;;;;7.60;5.93;;;11.70;1.00;;;;;;4981318;28;20458;-55
2022/12/26 00:09:07;;;;;;;8.03;5.83;;;11.70;1.00;;;;;;4982692;28;20432;-54
2022/12/26 00:11:34;;;;;;;8.90;6.30;;;11.70;1.00;;;;;;4983298;28;20282;-54
2022/12/26 00:14:03;;;;;;;8.90;6.53;;;11.70;1.00;;;;;;4976384;28;20196;-55
2022/12/26 00:16:29;;;;;;;8.40;6.20;;;11.70;1.00;;;;;;4974106;28;20979;-55
2022/12/26 00:18:55;;;;;;;7.30;6.37;;;11.70;1.00;;;;;;4983894;28;20466;-54
2022/12/26 00:21:22;;;;;;;9.80;5.70;;;11.80;1.00;;;;;;4980659;28;20214;-55
2022/12/26 00:23:48;;;;;;;6.57;5.63;;;11.90;1.00;;;;;;4979705;28;20459;-55
2022/12/26 00:26:17;;;;;;;7.50;6.17;;;11.90;1.00;;;;;;4983164;28;20460;-56
2022/12/26 00:28:43;;;;;;;7.50;5.60;;;11.90;1.00;;;;;;4985428;28;20566;-55
2022/12/26 00:31:12;;;;;;;6.33;5.47;;;12.00;1.00;;;;;;4988136;28;20450;-54
2022/12/26 00:33:38;;;;;;;6.60;5.57;;;12.00;1.00;;;;;;4990215;28;21008;-56
2022/12/26 00:36:06;;;;;;;6.83;5.80;;;11.90;1.00;;;;;;4984216;28;20417;-55
2022/12/26 00:38:36;;;;;;;7.40;5.90;;;11.90;1.00;;;;;;4983149;28;20453;-55
2022/12/26 00:41:03;;;;;;;7.20;6.00;;;11.90;1.00;;;;;;4980843;28;20428;-55
2022/12/26 00:43:29;;;;;;;5.50;4.80;;;11.90;1.00;;;;;;4982379;28;20831;-54
2022/12/26 00:45:55;;;;;;;8.50;6.40;;;11.90;1.00;;;;;;4985120;28;20524;-54
2022/12/26 00:48:21;;;;;;;7.47;6.20;;;11.90;1.00;;;;;;4983573;28;20864;-55
2022/12/26 00:50:46;;;;;;;8.60;6.27;;;11.90;1.00;;;;;;4980592;28;20425;-54
2022/12/26 00:53:12;;;;;;;7.00;6.30;;;11.90;1.00;;;;;;4984174;28;20207;-54
2022/12/26 00:55:38;;;;;;;7.60;6.33;;;11.90;1.00;;;;;;4982324;28;20195;-53
2022/12/26 00:58:04;;;;;;;9.20;6.73;;;11.90;1.00;;;;;;4986134;28;20278;-54
2022/12/26 01:00:29;;;;;;;9.50;6.70;;;11.90;1.00;;;;;;4977064;28;20290;-54
2022/12/26 01:02:55;;;;;;;9.90;7.27;;;11.90;1.00;;;;;;4985061;28;20444;-55
2022/12/26 01:05:21;;;;;;;6.80;6.10;;;12.00;1.00;;;;;;4987202;28;20192;-55
2022/12/26 01:07:46;;;;;;;8.93;7.00;;;11.90;1.00;;;;;;4977600;28;20866;-54
2022/12/26 01:10:12;;;;;;;10.00;7.07;;;11.90;1.00;;;;;;4984532;28;20183;-54
2022/12/26 01:12:38;;;;;;;10.50;7.73;;;11.90;1.00;;;;;;4983300;28;20283;-54
2022/12/26 01:15:06;;;;;;;7.97;7.10;;;12.00;1.00;;;;;;4983694;28;20458;-56
2022/12/26 01:17:32;;;;;;;10.00;7.10;;;11.90;1.00;;;;;;4981226;28;20936;-54
2022/12/26 01:19:58;;;;;;;8.67;7.23;;;11.80;1.00;;;;;;4978386;28;20462;-54
2022/12/26 01:22:26;;;;;;;9.67;7.77;;;11.80;1.00;;;;;;4981160;28;20528;-57
2022/12/26 01:24:53;;;;;;;10.03;7.70;;;11.80;1.00;;;;;;4982934;28;20822;-54
2022/12/26 01:27:19;;;;;;;8.83;7.50;;;11.90;1.00;;;;;;4983662;28;20454;-54
2022/12/26 01:29:45;;;;;;;9.77;7.73;;;11.90;1.00;;;;;;4979433;28;20915;-55
2022/12/26 01:32:10;;;;;;;9.00;7.10;;;12.00;1.00;;;;;;4982084;28;20374;-54
2022/12/26 01:34:36;;;;;;;11.20;7.40;;;11.90;1.00;;;;;;4964595;28;20195;-54
2022/12/26 01:37:01;;;;;;;11.43;7.20;;;11.90;1.00;;;;;;4983948;28;20199;-53
2022/12/26 01:39:27;;;;;;;9.90;7.43;;;11.90;1.00;;;;;;4980796;28;20191;-54
2022/12/26 01:41:53;;;;;;;9.80;8.70;;;11.90;1.00;;;;;;4982198;28;20304;-55
2022/12/26 01:44:52;;;;;;;9.13;7.30;;;12.00;1.00;;;;;;4983044;28;20714;-55
2022/12/26 01:47:21;;;;;;;8.30;7.20;;;11.80;1.00;;;;;;4983000;28;20274;-55
2022/12/26 01:49:51;;;;;;;8.70;7.57;;;11.80;1.00;;;;;;4979529;28;20490;-55
2022/12/26 01:52:40;;;;;;;9.97;8.10;;;11.70;1.00;;;;;;4981636;28;20794;-54
2022/12/26 01:55:09;;;;;;;11.30;7.40;;;11.70;1.00;;;;;;4983494;28;20510;-54
2022/12/26 01:57:41;;;;;;;9.37;7.80;;;11.80;1.00;;;;;;4982592;28;20806;-55
2022/12/26 02:00:08;;;;;;;10.40;8.13;;;11.80;1.00;;;;;;4978975;28;20454;-55
2022/12/26 02:05:32;;;;;;;8.00;6.83;;;11.70;1.00;;;;;;4984367;28;20521;-56
2022/12/26 02:05:33;;;;;;;9.27;7.40;;;11.80;1.00;;;;;;4984084;28;21186;-55
2022/12/26 02:08:04;;;;;;;10.50;8.77;;;11.80;1.00;;;;;;4983232;28;22589;-55
2022/12/26 02:10:35;;;;;;;9.20;7.30;;;11.70;1.00;;;;;;4978910;28;20509;-56
2022/12/26 02:13:01;;;;;;;9.40;7.37;;;11.80;1.00;;;;;;4981226;28;20482;-54
2022/12/26 02:15:28;;;;;;;9.47;7.67;;;11.90;1.00;;;;;;4984785;28;21017;-55
2022/12/26 02:17:53;;;;;;;8.27;6.80;;;11.70;1.00;;;;;;4980464;28;20285;-53
2022/12/26 02:20:26;;;;;;;10.80;8.17;;;11.80;1.00;;;;;;4985223;28;20899;-54
2022/12/26 02:23:11;;;;;;;9.67;7.00;;;11.80;1.00;;;;;;4982215;28;20316;-53
2022/12/26 02:26:14;;;;;;;9.60;6.63;;;11.70;1.00;;;;;;4980508;28;20546;-55
2022/12/26 02:29:16;;;;;;;7.67;6.87;;;11.70;1.00;;;;;;4984359;28;20455;-55
2022/12/26 02:31:44;;;;;;;7.83;6.50;;;11.60;1.00;;;;;;4981735;28;20808;-55
2022/12/26 02:34:34;;;;;;;7.30;6.60;;;11.60;1.00;;;;;;4978891;28;20459;-55
2022/12/26 02:37:35;;;;;;;8.77;6.40;;;11.80;1.00;;;;;;4984923;28;20462;-53
2022/12/26 02:40:19;;;;;;;7.33;6.43;;;11.80;1.00;;;;;;4950840;28;20486;-54
2022/12/26 02:43:05;;;;;;;10.07;8.30;;;11.90;1.00;;;;;;4985114;28;20830;-54
2022/12/26 02:48:57;;;;;;;11.30;7.57;;;11.90;1.00;;;;;;4921159;29;20454;-54
2022/12/26 03:14:59;;;;;;;8.10;7.00;;;11.80;1.00;;;;;;4982955;28;20466;-54
2022/12/26 03:17:34;;;;;;;9.07;7.83;;;11.80;1.00;;;;;;4982100;28;20433;-53
2022/12/26 03:20:09;;;;;;;8.60;7.20;;;11.80;1.00;;;;;;4975790;28;20427;-55
2022/12/26 03:22:45;;;;;;;9.10;7.40;;;11.80;1.00;;;;;;4981124;28;20473;-55
2022/12/26 03:28:22;;;;;;;8.43;7.13;;;11.90;1.00;;;;;;4978725;28;20465;-54
2022/12/26 03:30:48;;;;;;;7.87;6.50;;;11.80;1.00;;;;;;4981624;28;20424;-55
2022/12/26 03:36:21;;;;;;;8.67;6.67;;;11.90;1.00;;;;;;4978998;28;20801;-55
2022/12/26 03:39:12;;;;;;;9.20;7.50;;;11.90;1.00;;;;;;4978904;28;20458;-55
2022/12/26 04:20:44;;;;;;;8.80;6.33;;;11.60;1.00;;;;;;4984272;28;20457;-52
2022/12/26 04:46:02;;;;;;;4.43;2.93;;;11.60;1.00;;;;;;4989292;28;20491;-54
2022/12/26 04:51:12;;;;;;;1.60;1.50;;;12.50;1.00;;;;;;4983178;28;20210;-55
2022/12/26 04:53:38;;;;;;;1.60;1.50;;;13.00;1.00;;;;;;4982574;28;20457;-54
2022/12/26 04:56:04;;;;;;;2.20;1.67;;;13.40;1.00;;;;;;4982442;28;20254;-57
2022/12/26 04:58:29;;;;;;;2.33;1.77;;;13.60;1.00;;;;;;4988370;28;20246;-54
2022/12/26 05:09:33;;;;;;;1.47;1.37;;;13.60;1.00;;;;;;4984407;28;20219;-54
2022/12/26 05:11:56;;;;;;;1.70;1.60;;;14.10;1.00;;;;;;4982485;28;20812;-54
2022/12/26 05:14:22;;;;;;;2.17;1.77;;;14.10;1.00;;;;;;4982452;28;20420;-53
2022/12/26 05:30:28;;;;;;;2.70;2.10;;;14.40;1.00;;;;;;4980916;28;20815;-55
2022/12/26 05:35:39;;;;;;;4.63;1.80;;;14.30;1.00;;;;;;4981762;28;20625;-55
2022/12/26 05:38:04;;;;;;;2.77;1.90;;;14.30;1.00;;;;;;4982093;28;20529;-53
2022/12/26 05:40:30;;;;;;;2.33;2.00;;;14.40;1.00;;;;;;4979488;28;20509;-54
2022/12/26 05:42:56;;;;;;;3.07;1.87;;;14.40;1.00;;;;;;4983243;28;20308;-54
2022/12/26 05:45:22;;;;;;;2.67;2.07;;;14.40;1.00;;;;;;4984005;28;20448;-56
2022/12/26 05:47:47;;;;;;;2.30;1.57;;;14.50;1.00;;;;;;4980344;28;20224;-55
2022/12/26 05:50:13;;;;;;;3.10;2.17;;;14.50;1.00;;;;;;4981919;28;20889;-53
2022/12/26 05:52:39;;;;;;;2.67;1.63;;;14.50;1.00;;;;;;4981922;28;20239;-55
2022/12/26 05:55:05;;;;;;;3.10;2.07;;;14.60;1.00;;;;;;4981070;28;20219;-54
2022/12/26 05:57:31;;;;;;;1.73;1.63;;;14.50;1.00;;;;;;4982124;28;20208;-54
2022/12/26 05:59:57;;;;;;;3.70;2.30;;;14.50;1.00;;;;;;4980825;28;20474;-54
2022/12/26 06:02:24;;;;;;;2.13;1.90;;;14.50;1.00;;;;;;4981163;28;20973;-55
2022/12/26 06:04:49;;;;;;;2.40;2.00;;;14.50;1.00;;;;;;4985314;28;20239;-54
2022/12/26 06:07:15;;;;;;;2.30;2.10;;;14.40;1.00;;;;;;4984125;28;20783;-55
2022/12/26 06:09:40;;;;;;;3.50;1.97;;;14.50;1.00;;;;;;4977970;28;20278;-54
2022/12/26 06:12:06;;;;;;;2.47;2.10;;;14.50;1.00;;;;;;4983040;28;20188;-54
2022/12/26 06:14:31;;;;;;;3.13;2.10;;;14.50;1.00;;;;;;4978551;28;20441;-56
2022/12/26 06:16:57;;;;;;;3.00;1.60;;;14.50;1.00;;;;;;4984644;28;20194;-54
2022/12/26 06:19:23;;;;;;;2.90;2.40;;;14.50;1.00;;;;;;4983598;28;20199;-54
2022/12/26 06:21:48;;;;;;;3.20;2.30;;;14.50;1.00;;;;;;4977874;28;20234;-53
2022/12/26 06:24:14;;;;;;;3.40;2.47;;;14.60;1.00;;;;;;4981366;28;20196;-55
2022/12/26 06:26:40;;;;;;;2.30;2.10;;;14.60;1.00;;;;;;4983474;28;20193;-54
2022/12/26 06:29:06;;;;;;;2.57;2.37;;;14.50;1.00;;;;;;4957121;28;20548;-54
2022/12/26 06:31:31;;;;;;;2.37;2.17;;;14.50;1.00;;;;;;4983318;28;20417;-54
2022/12/26 06:33:57;;;;;;;2.50;2.10;;;14.50;1.00;;;;;;4979483;28;20180;-55
2022/12/26 06:36:24;;;;;;;2.53;2.13;;;14.50;1.00;;;;;;4979704;28;20627;-53
2022/12/26 06:38:51;;;;;;;3.40;1.90;;;14.50;1.00;;;;;;4986724;28;20453;-54
2022/12/26 06:41:19;;;;;;;2.77;2.17;;;14.60;1.00;;;;;;4982793;28;20422;-54
2022/12/26 06:43:46;;;;;;;2.20;2.00;;;14.50;1.00;;;;;;4980410;28;20449;-54
2022/12/26 06:46:13;;;;;;;2.57;2.20;;;14.50;1.00;;;;;;4982227;28;20426;-53
2022/12/26 06:48:39;;;;;;;2.53;2.13;;;14.50;1.00;;;;;;4981580;28;20488;-54
2022/12/26 06:51:08;;;;;;;2.57;2.10;;;14.60;1.00;;;;;;4985322;28;20417;-55
2022/12/26 06:53:34;;;;;;;2.93;2.30;;;14.60;1.00;;;;;;4982831;28;20193;-54
2022/12/26 06:56:14;;;;;;;2.10;1.90;;;14.60;1.00;;;;;;4978440;28;20447;-54
2022/12/26 06:58:40;;;;;;;2.50;2.23;;;14.50;1.00;;;;;;4982404;28;20749;-55
2022/12/26 07:01:13;;;;;;;4.30;2.00;;;14.60;1.00;;;;;;4979112;28;20430;-55
2022/12/26 07:03:39;;;;;;;2.47;2.27;;;14.50;1.00;;;;;;4983751;28;20448;-55
2022/12/26 07:06:26;;;;;;;2.73;2.23;;;14.50;1.00;;;;;;4985081;28;20413;-54
2022/12/26 07:08:53;;;;;;;4.80;2.23;;;14.30;1.00;;;;;;4968547;28;20547;-54
2022/12/26 07:11:22;;;;;;;3.70;1.90;;;14.40;1.00;;;;;;4989899;28;20455;-55
2022/12/26 07:13:47;;;;;;;2.43;2.20;;;14.40;1.00;;;;;;4981360;28;20455;-54
2022/12/26 07:16:13;;;;;;;3.80;2.40;;;14.30;1.00;;;;;;4980820;28;20440;-53
2022/12/26 07:18:39;;;;;;;2.67;2.47;;;14.30;1.00;;;;;;4980277;28;20217;-56
2022/12/26 07:21:06;;;;;;;1.90;1.63;;;14.30;1.00;;;;;;4978537;28;20541;-54
2022/12/26 07:23:32;;;;;;;3.33;2.43;;;14.30;1.00;;;;;;4980570;28;20207;-55
2022/12/26 07:25:58;;;;;;;4.70;2.40;;;14.30;1.00;;;;;;4980227;28;20498;-53
2022/12/26 07:28:24;;;;;;;4.73;2.13;;;14.30;1.00;;;;;;4978749;28;20206;-55
2022/12/26 07:30:50;;;;;;;2.50;2.00;;;14.30;1.00;;;;;;4978217;28;20475;-56
2022/12/26 07:33:16;;;;;;;3.87;2.20;;;14.30;1.00;;;;;;4980986;28;20338;-55
2022/12/26 07:35:42;;;;;;;3.10;2.10;;;14.10;1.00;;;;;;4982496;28;20469;-55
2022/12/26 07:38:09;;;;;;;2.67;1.83;;;14.20;1.00;;;;;;4978645;28;20475;-56
2022/12/26 07:40:34;;;;;;;5.90;2.70;;;14.20;1.00;;;;;;4977071;28;20537;-53
2022/12/26 07:43:00;;;;;;;2.40;2.20;;;14.20;1.00;;;;;;4981193;28;20448;-54
2022/12/26 07:45:25;;;;;;;2.40;2.10;;;13.90;1.00;;;;;;4960940;28;20243;-54
2022/12/26 07:47:56;;;;;;;3.60;2.17;;;14.00;1.00;;;;;;4980212;28;20553;-54
2022/12/26 07:50:22;;;;;;;2.97;1.90;;;14.10;1.00;;;;;;4980737;28;20298;-53
2022/12/26 07:52:48;;;;;;;2.10;1.90;;;14.20;1.00;;;;;;4978042;28;20465;-53
2022/12/26 07:55:14;;;;;;;2.50;2.30;;;14.10;1.00;;;;;;4964491;28;21009;-55
2022/12/26 07:57:39;;;;;;;3.43;2.47;;;14.10;1.00;;;;;;4980991;28;20210;-54
2022/12/26 08:00:07;;;;;;;2.57;2.37;;;14.10;1.00;;;;;;4977461;28;20211;-56
2022/12/26 08:02:32;;;;;;;2.10;1.90;;;14.10;1.00;;;;;;4978035;28;20216;-54
2022/12/26 08:04:58;;;;;;;3.50;2.00;;;14.10;1.00;;;;;;4980426;28;20476;-54
2022/12/26 08:07:24;;;;;;;2.33;2.13;;;14.20;1.00;;;;;;4989653;28;20496;-55
2022/12/26 08:09:49;;;;;;;3.30;1.70;;;14.30;1.00;;;;;;4963573;28;20210;-53
2022/12/26 08:12:15;;;;;;;4.10;2.97;;;14.40;1.00;;;;;;4975274;28;20462;-55
2022/12/26 08:14:42;;;;;;;2.87;2.30;;;14.20;1.00;;;;;;4976338;28;20204;-54
2022/12/26 08:17:08;;;;;;;2.30;1.97;;;14.20;1.00;;;;;;4983640;28;20223;-53
2022/12/26 08:19:33;;;;;;;5.90;1.83;;;14.20;1.00;;;;;;4981132;28;20481;-54
2022/12/26 08:21:59;;;;;;;6.33;3.60;;;14.30;1.00;;;;;;4983255;28;20207;-54
2022/12/26 08:24:24;;;;;;;2.53;2.33;;;14.50;1.00;;;;;;4981240;28;20188;-55
2022/12/26 08:26:50;;;;;;;3.47;2.07;;;14.60;1.00;;;;;;4981583;28;20227;-56
2022/12/26 08:29:16;;;;;;;3.67;2.00;;;14.80;1.00;;;;;;4979329;28;20279;-53
2022/12/26 08:31:41;;;;;;;2.67;2.47;;;14.70;1.00;;;;;;4987027;28;20197;-54
2022/12/26 08:34:07;;;;;;;2.60;2.03;;;14.70;1.00;;;;;;4986602;28;20246;-54
2022/12/26 08:36:32;;;;;;;2.40;2.20;;;14.90;1.00;;;;;;4987606;28;20214;-54
2022/12/26 08:38:58;;;;;;;2.20;1.63;;;15.00;1.00;;;;;;4989428;28;20189;-54
2022/12/26 08:41:24;;;;;;;2.63;2.13;;;14.90;1.00;;;;;;4987186;28;20235;-54
2022/12/26 08:43:50;;;;;;;3.00;2.40;;;14.90;1.00;;;;;;4987498;28;20243;-55
2022/12/26 08:46:18;;;;;;;2.33;1.93;;;15.00;1.00;;;;;;4987180;28;20247;-55
2022/12/26 08:48:44;;;;;;;5.57;4.00;;;14.90;1.00;;;;;;4989548;28;20976;-54
2022/12/26 08:51:22;;;;;;;3.40;3.00;;;15.00;1.00;;;;;;4993713;28;20480;-57
2022/12/26 08:53:49;;;;;;;3.37;2.90;;;14.90;1.00;;;;;;4988985;28;20527;-54
2022/12/26 08:56:17;;;;;;;2.60;1.80;;;14.80;1.00;;;;;;4986351;28;20440;-53
2022/12/26 08:58:43;;;;;;;2.50;2.00;;;14.80;1.00;;;;;;4991036;28;21000;-53
2022/12/26 09:01:13;;;;;;;1.93;1.60;;;14.80;1.00;;;;;;4993900;28;20487;-53
2022/12/26 09:03:39;;;;;;;3.10;2.30;;;14.90;1.00;;;;;;4990970;28;20211;-55
2022/12/26 09:06:07;;;;;;;2.37;2.17;;;14.90;1.00;;;;;;4981213;28;20458;-55
2022/12/26 09:08:34;;;;;;;2.63;2.37;;;15.00;1.00;;;;;;4985098;28;20450;-54
2022/12/26 09:11:09;;;;;;;4.13;2.30;;;15.00;1.00;;;;;;4990196;28;20430;-53
2022/12/26 09:13:36;;;;;;;3.13;2.23;;;15.10;1.00;;;;;;4990559;28;20463;-55
2022/12/26 09:16:18;;;;;;;3.40;2.40;;;15.20;1.00;;;;;;4985329;28;20957;-55
2022/12/26 09:18:45;;;;;;;2.20;1.93;;;15.20;1.00;;;;;;4986458;28;20477;-54
2022/12/26 09:21:13;;;;;;;2.10;1.90;;;15.20;1.00;;;;;;4985875;28;20482;-53
2022/12/26 09:23:39;;;;;;;3.57;2.70;;;15.20;1.00;;;;;;4980347;28;20458;-54
2022/12/26 09:26:16;;;;;;;3.10;2.20;;;15.30;1.00;;;;;;4987088;28;20437;-55
2022/12/26 09:28:44;;;;;;;2.40;2.00;;;15.30;1.00;;;;;;4983252;28;20462;-55
2022/12/26 09:31:16;;;;;;;5.63;2.07;;;15.10;1.00;;;;;;4988791;28;20428;-53
2022/12/26 09:33:42;;;;;;;4.87;2.80;;;15.20;1.00;;;;;;4968118;28;20457;-54
2022/12/26 09:36:13;;;;;;;2.87;2.00;;;15.50;1.00;;;;;;4971682;28;20934;-55
2022/12/26 09:38:38;;;;;;;2.90;1.97;;;15.70;1.00;;;;;;4984126;28;20562;-55
2022/12/26 09:41:23;;;;;;;2.77;2.57;;;15.90;1.00;;;;;;4986996;28;20539;-54
2022/12/26 09:44:10;;;;;;;4.50;1.90;;;16.00;1.00;;;;;;4985432;28;20307;-55
2022/12/26 09:47:06;;;;;;;3.13;2.33;;;16.00;1.00;;;;;;4989958;28;20413;-53
2022/12/26 09:49:36;;;;;;;2.10;1.93;;;15.70;1.00;;;;;;4999383;28;20442;-54
2022/12/26 09:52:09;;;;;;;3.80;2.53;;;15.70;1.00;;;;;;4988284;28;20428;-55
2022/12/26 09:54:58;;;;;;;3.93;2.50;;;15.70;1.00;;;;;;4988595;28;20422;-55
2022/12/26 09:57:38;;;;;;;4.27;2.67;;;15.60;1.00;;;;;;4968715;28;20546;-54
2022/12/26 10:00:06;;;;;;;5.50;2.10;;;15.40;1.00;;;;;;4983167;28;20448;-54
2022/12/26 10:02:33;;;;;;;2.70;2.10;;;15.40;1.00;;;;;;4987428;28;20479;-53
2022/12/26 10:04:59;;;;;;;6.20;2.30;;;15.40;1.00;;;;;;4988796;28;20473;-55
2022/12/26 10:07:48;;;;;;;2.33;2.13;;;15.50;1.00;;;;;;4992593;28;20487;-55
2022/12/26 10:10:46;;;;;;;4.60;2.40;;;15.50;1.00;;;;;;4986672;28;20503;-53
2022/12/26 10:13:28;;;;;;;2.40;2.03;;;15.50;1.00;;;;;;4981598;28;20480;-53
2022/12/26 10:16:02;;;;;;;4.97;2.83;;;15.50;1.00;;;;;;4983988;28;20927;-54
2022/12/26 10:19:05;;;;;;;2.63;1.60;;;15.50;1.00;;;;;;4988362;28;20438;-54
2022/12/26 10:21:52;;;;;;;2.47;1.87;;;15.40;1.00;;;;;;4984647;28;20426;-55
2022/12/26 10:24:22;;;;;;;2.50;2.30;;;15.40;1.00;;;;;;4984018;28;20543;-55
2022/12/26 10:26:54;;;;;;;2.87;2.53;;;15.30;1.00;;;;;;4986747;28;20448;-54
2022/12/26 10:29:26;;;;;;;2.90;2.37;;;15.20;1.00;;;;;;4989460;28;20547;-53
2022/12/26 10:31:58;;;;;;;3.90;2.50;;;15.20;1.00;;;;;;4987336;28;20472;-55
2022/12/26 10:34:38;;;;;;;2.50;2.10;;;15.20;1.00;;;;;;4988035;28;20454;-54
2022/12/26 10:37:25;;;;;;;2.60;2.13;;;15.20;1.00;;;;;;4986122;28;20442;-54
2022/12/26 10:39:59;;;;;;;5.13;2.70;;;15.40;1.00;;;;;;4992133;28;20453;-53
2022/12/26 10:42:49;;;;;;;8.33;6.10;;;15.40;1.00;;;;;;4986942;28;20521;-55
2022/12/26 10:45:16;;;;;;;3.60;2.47;;;15.50;1.00;;;;;;4986056;28;20442;-55
2022/12/26 10:47:45;;;;;;;3.70;2.63;;;15.60;1.00;;;;;;4991596;28;20462;-53
2022/12/26 10:50:24;;;;;;;3.60;2.30;;;15.60;1.00;;;;;;4986861;28;20878;-55
2022/12/26 10:52:50;;;;;;;3.23;2.93;;;15.70;1.00;;;;;;4988349;28;20421;-55
2022/12/26 10:55:19;;;;;;;2.50;2.30;;;15.70;1.00;;;;;;4987484;28;20457;-54
2022/12/26 10:57:49;;;;;;;2.23;1.77;;;15.60;1.00;;;;;;4984682;28;20441;-53
2022/12/26 11:00:21;;;;;;;2.43;2.23;;;15.60;1.00;;;;;;4986725;28;20426;-54
2022/12/26 11:03:08;;;;;;;3.67;2.70;;;15.60;1.00;;;;;;4986910;28;20478;-54
2022/12/26 11:05:40;;;;;;;2.57;2.37;;;15.40;1.00;;;;;;4984930;28;20581;-52
2022/12/26 11:08:18;;;;;;;2.30;2.10;;;15.40;1.00;;;;;;4988195;28;20825;-54
2022/12/26 11:11:05;;;;;;;3.83;3.30;;;15.60;1.00;;;;;;4990429;28;20449;-54
2022/12/26 11:13:37;;;;;;;3.63;2.57;;;15.70;1.00;;;;;;4988200;28;20896;-54
2022/12/26 11:16:03;;;;;;;5.30;4.80;;;15.90;1.00;;;;;;4984018;28;20418;-53
2022/12/26 11:18:45;;;;;;;4.10;3.63;;;15.90;1.00;;;;;;4986974;28;20429;-54
2022/12/26 11:21:19;;;;;;;4.40;4.00;;;15.90;1.00;;;;;;4988006;28;20948;-55
2022/12/26 11:23:46;;;;;;;4.10;3.07;;;15.80;1.00;;;;;;4983676;28;20446;-55
2022/12/26 11:26:32;;;;;;;5.07;3.27;;;15.90;1.00;;;;;;4993881;28;20458;-54
2022/12/26 11:29:12;;;;;;;6.23;2.80;;;15.90;1.00;;;;;;4982613;28;20766;-54
2022/12/26 11:31:40;;;;;;;3.43;2.43;;;15.90;1.00;;;;;;4985003;28;20797;-55
2022/12/26 11:34:18;;;;;;;3.60;2.17;;;15.80;1.00;;;;;;4984634;28;20421;-54
2022/12/26 11:36:47;;;;;;;2.80;2.13;;;15.80;1.00;;;;;;4976761;28;20459;-54
2022/12/26 11:39:21;;;;;;;3.00;2.37;;;15.80;1.00;;;;;;4981775;28;20451;-53
2022/12/26 11:41:48;;;;;;;2.97;1.90;;;15.80;1.00;;;;;;4984868;28;20450;-55
2022/12/26 11:44:13;;;;;;;2.00;1.77;;;15.80;1.00;;;;;;4986622;28;20779;-54
2022/12/26 11:46:41;;;;;;;3.43;2.20;;;15.80;1.00;;;;;;4990341;28;20453;-54
2022/12/26 11:49:21;;;;;;;2.87;2.57;;;15.80;1.00;;;;;;4985881;28;20230;-55
2022/12/26 11:51:49;;;;;;;3.93;2.87;;;15.80;1.00;;;;;;4986506;28;20492;-54
2022/12/26 11:54:28;;;;;;;8.20;5.20;;;15.70;1.00;;;;;;4982442;28;20447;-55
2022/12/26 11:57:21;;;;;;;4.63;3.80;;;15.70;1.00;;;;;;4988030;28;20952;-54
2022/12/26 11:59:49;;;;;;;2.60;1.87;;;15.80;1.00;;;;;;4983454;28;20520;-53
2022/12/26 12:02:20;;;;;;;3.50;2.80;;;15.80;1.00;;;;;;4987891;28;20509;-55
2022/12/26 12:04:46;;;;;;;4.93;2.40;;;15.70;1.00;;;;;;4989559;28;20445;-51
2022/12/26 12:07:33;;;;;;;2.23;1.90;;;15.70;1.00;;;;;;4985941;28;20439;-51
2022/12/26 12:10:22;;;;;;;3.03;2.10;;;15.70;1.00;;;;;;4982158;28;20509;-52
2022/12/26 12:13:21;;;;;;;1.80;1.30;;;15.80;1.00;;;;;;4987735;28;20426;-52
2022/12/26 12:15:55;;;;;;;2.03;1.60;;;15.40;1.00;;;;;;4992021;28;20426;-52
2022/12/26 12:18:26;;;;;;;2.10;1.90;;;15.30;1.00;;;;;;4987165;28;20446;-52
2022/12/26 12:21:41;;;;;;;2.77;1.77;;;15.30;1.00;;;;;;4994170;28;20450;-51
2022/12/26 12:24:25;;;;;;;2.03;1.50;;;15.20;1.00;;;;;;4962847;28;20455;-54
2022/12/26 12:27:12;;;;;;;1.70;1.60;;;15.10;1.00;;;;;;4983371;28;20483;-52
2022/12/26 12:29:45;;;;;;;2.57;2.10;;;15.00;1.00;;;;;;4990825;28;20477;-54
2022/12/26 12:32:22;;;;;;;2.07;1.70;;;15.00;1.00;;;;;;4984319;28;20448;-54
2022/12/26 12:35:21;;;;;;;2.30;1.90;;;14.90;1.00;;;;;;4993645;28;20421;-53
2022/12/26 12:38:17;;;;;;;2.23;2.03;;;14.90;1.00;;;;;;4979692;28;20962;-52
2022/12/26 12:41:05;;;;;;;3.40;1.50;;;15.10;1.00;;;;;;4988574;28;20421;-52
2022/12/26 12:43:56;;;;;;;1.60;1.50;;;15.10;1.00;;;;;;4999176;28;20958;-52
2022/12/26 12:46:31;;;;;;;1.73;1.63;;;15.00;1.00;;;;;;4987225;28;20451;-54
2022/12/26 12:49:16;;;;;;;2.13;1.40;;;14.90;1.00;;;;;;4998389;28;20471;-54
2022/12/26 12:52:12;;;;;;;3.30;1.50;;;14.90;1.00;;;;;;4990960;28;20467;-52
2022/12/26 12:55:07;;;;;;;1.50;1.40;;;14.90;1.00;;;;;;4987540;28;20446;-53
2022/12/26 12:57:48;;;;;;;2.00;1.60;;;14.90;1.00;;;;;;4988007;28;20447;-54
2022/12/26 13:00:23;;;;;;;2.20;1.50;;;14.90;1.00;;;;;;4991803;28;20436;-54
2022/12/26 13:02:55;;;;;;;2.40;2.20;;;14.80;1.00;;;;;;4990811;28;20469;-54
2022/12/26 13:05:38;;;;;;;1.73;1.63;;;14.70;1.00;;;;;;4989104;28;20463;-52
2022/12/26 13:08:11;;;;;;;3.67;1.53;;;14.70;1.00;;;;;;4989702;28;20980;-54
2022/12/26 13:10:46;;;;;;;2.37;1.10;;;14.60;1.00;;;;;;4982428;28;20420;-51
2022/12/26 13:13:27;;;;;;;1.93;0.60;;;13.30;1.00;;;;;;4984503;28;20599;-53
2022/12/26 13:16:02;;;;;;;1.40;0.70;;;12.20;1.00;;;;;;4995761;28;20473;-53
2022/12/26 13:18:34;;;;;;;1.00;0.40;;;11.70;1.00;;;;;;4995658;28;20954;-53
2022/12/26 13:21:04;;;;;;;1.60;0.90;;;11.50;1.00;;;;;;4987095;28;20506;-55
2022/12/26 13:26:47;;;;;;;0.80;0.47;;;11.20;1.00;;;;;;4990084;28;20465;-52
2022/12/26 13:29:42;;;;;;;0.70;0.53;;;11.20;1.00;;;;;;4989656;28;20579;-54
2022/12/26 13:32:29;;;;;;;5.30;0.63;;;11.20;1.00;;;;;;4987452;28;20999;-53
2022/12/26 13:34:57;;;;;;;2.63;0.93;;;11.30;1.00;;;;;;4985184;28;20954;-52
2022/12/26 13:37:38;;;;;;;1.57;1.00;;;11.40;1.00;;;;;;4992947;28;20935;-54
2022/12/26 13:40:09;;;;;;;0.70;0.60;;;11.30;1.00;;;;;;4983932;28;20424;-53
2022/12/26 13:45:34;;;;;;;4.17;0.80;;;11.50;1.00;;;;;;4986827;28;20478;-52
2022/12/26 13:48:01;;;;;;;2.00;0.87;;;11.60;1.00;;;;;;4986366;28;20485;-54
2022/12/26 13:50:52;;;;;;;1.20;0.90;;;11.60;1.00;;;;;;4990329;28;21048;-53
2022/12/26 13:53:24;;;;;;;1.53;1.30;;;11.60;1.00;;;;;;4979367;28;20470;-52
2022/12/26 13:55:54;;;;;;;2.00;1.70;;;11.70;1.00;;;;;;4985524;28;20424;-52
2022/12/26 13:58:31;;;;;;;2.20;1.63;;;11.80;1.00;;;;;;4989427;28;20443;-54
2022/12/26 14:01:15;;;;;;;1.70;1.20;;;11.70;1.00;;;;;;4985289;28;20541;-54
2022/12/26 14:04:14;;;;;;;1.00;0.90;;;11.80;1.00;;;;;;4983029;28;20929;-51
2022/12/26 14:07:18;;;;;;;4.30;1.87;;;11.80;1.00;;;;;;4987762;28;20457;-53
2022/12/26 14:10:03;;;;;;;3.00;1.37;;;11.80;1.00;;;;;;4937682;28;20424;-53
2022/12/26 14:12:59;;;;;;;1.43;1.27;;;11.80;1.00;;;;;;4986477;28;20426;-52
2022/12/26 14:15:35;;;;;;;1.07;0.97;;;11.70;1.00;;;;;;4988326;28;20462;-53
2022/12/26 14:18:17;;;;;;;1.60;1.07;;;11.70;1.00;;;;;;4988315;28;20416;-50
2022/12/26 14:20:50;;;;;;;2.03;1.30;;;11.60;1.00;;;;;;4993164;28;20439;-53
2022/12/26 14:23:37;;;;;;;2.67;1.50;;;11.60;1.00;;;;;;4986341;28;20775;-54
2022/12/26 14:26:21;;;;;;;11.90;2.33;;;11.60;1.00;;;;;;4993633;28;20962;-53
2022/12/26 14:29:18;;;;;;;4.80;2.80;;;11.60;1.00;;;;;;4971181;28;20445;-51
2022/12/26 14:32:24;;;;;;;2.20;2.00;;;11.60;1.00;;;;;;4988246;28;20455;-52
2022/12/26 14:35:06;;;;;;;2.50;2.20;;;11.60;1.00;;;;;;4989975;28;20463;-52
2022/12/26 14:38:09;;;;;;;2.00;1.50;;;11.70;1.00;;;;;;4990135;28;20446;-52
2022/12/26 14:40:37;;;;;;;1.63;1.53;;;11.70;1.00;;;;;;4993655;28;20456;-53
2022/12/26 14:43:27;;;;;;;3.03;1.30;;;11.50;1.00;;;;;;5001697;28;20454;-53
2022/12/26 14:45:53;;;;;;;1.63;1.37;;;11.60;1.00;;;;;;4988148;28;20459;-52
2022/12/26 14:48:22;;;;;;;2.33;1.67;;;11.60;1.00;;;;;;4988683;28;21012;-53
2022/12/26 14:50:49;;;;;;;1.57;1.43;;;11.60;1.00;;;;;;4988380;28;20458;-53
2022/12/26 14:53:23;;;;;;;2.67;1.60;;;11.60;1.00;;;;;;4981445;28;20422;-54
2022/12/26 14:55:55;;;;;;;4.77;1.53;;;11.60;1.00;;;;;;4985144;28;20453;-54
2022/12/26 14:58:37;;;;;;;3.00;1.40;;;11.70;1.00;;;;;;4986178;28;20434;-53
2022/12/26 15:01:11;;;;;;;1.73;1.53;;;11.60;1.00;;;;;;4990973;28;20424;-52
2022/12/26 15:04:02;;;;;;;3.80;2.50;;;11.80;1.00;;;;;;4996408;28;20579;-52
2022/12/26 15:06:44;;;;;;;2.73;2.37;;;11.80;1.00;;;;;;4998200;28;20446;-52
2022/12/26 15:09:10;;;;;;;3.90;2.20;;;11.90;1.00;;;;;;4984435;28;20460;-59
2022/12/26 15:12:12;;;;;;;3.17;2.57;;;11.90;1.00;;;;;;4991429;28;20475;-52
2022/12/26 15:15:02;;;;;;;3.43;2.30;;;11.90;1.00;;;;;;4995069;28;20188;-52
2022/12/26 15:17:54;;;;;;;1.60;1.50;;;11.80;1.00;;;;;;4992484;28;20441;-54
2022/12/26 15:20:31;;;;;;;2.07;1.33;;;11.80;1.00;;;;;;4976152;28;20475;-55
2022/12/26 15:23:10;;;;;;;1.53;1.40;;;11.70;1.00;;;;;;4988853;28;20531;-53
2022/12/26 15:26:02;;;;;;;1.50;1.40;;;11.80;1.00;;;;;;4995406;28;20596;-53
2022/12/26 15:28:55;;;;;;;1.47;1.37;;;11.80;1.00;;;;;;4953767;28;20479;-51
2022/12/26 15:32:08;;;;;;;1.23;1.10;;;11.70;1.00;;;;;;4996532;28;20590;-52
2022/12/26 15:34:59;;;;;;;1.63;1.47;;;11.70;1.00;;;;;;4952261;28;20452;-53
2022/12/26 15:37:38;;;;;;;1.57;1.27;;;11.70;1.00;;;;;;4988127;28;20444;-54
2022/12/26 15:40:23;;;;;;;1.67;1.27;;;11.80;1.00;;;;;;4998026;28;20582;-50